4ND4 weather

Pfau Private Airport
Upham, North Dakota, United States

Public forecast

Using degrees Fahrenheit for public forecast. Weather courtesy of forecast.io.

METAR (pilot weather report)

Closest report is Minot Air Force Base, 21.0 nm (38.9 km) WSW. Retrieved 2019/07/20 02:56 UTC (14 minutes ago):

KMIB 200256Z AUTO 22007KT 10SM CLR 17/10 A2979 RMK AO2 SLP089 T01700099 52012 $

TAF (pilot weather forecast)

Forecast is more than 6 hours old.

Closest forecast is Minot Air Force Base, 21.0 nm (38.9 km) WSW. Retrieved 2019/07/19 17:09 UTC (10 hours ago):

TAF KMIB 191700Z 1917/2023 29015G20KT 9999 SKC QNH2976INS BECMG 2000/2001 28009KT 9999 FEW150 QNH2980INS TX25/1922Z TN12/2011Z LAST NO AMDS AFT 1917 NEXT 2909